Airfield :
LOGIN :

Register | Disclaimer

   EN    FR    IT 

 










Legend :    VFR   Marginal VFR   IFR   Intensive IFR   Very Intensive IFR
Visi :
Ceiling :
>= 8 km
>= 3000ft
5 to 8 km
1000 to 3000 ft
1500m to 5 km
500 to 1000 ft
800 to 1500m
200 to 500 ft
< 800m
< 200 ft
Symbols :   Thunderstorms  Fog  Heavy snow  Heavy precipitations  Wind > 20 kt
SIGMETs :     Misc.  Thunderstorms  Icing  Turbulence  Mountain Waves  Volcanic Ashes






- Airport Elevation : 400 ft
- IATA code : BNX


LQBK - Banja Luka

CURRENT METAR :
  • 200030Z 01008KT 9999 -RA FEW015 SCT022 BKN035 05/04 Q1023 NOSIG

EXPIRED METARs :
  • 200000Z 36008KT 9999 -RA BKN037 06/03 Q1022 NOSIG
  • 192330Z 33005KT 9999 -RA FEW017 BKN037 07/02 Q1022 NOSIG
  • 192300Z 33009KT 9999 RA FEW016 BKN040 08/01 Q1021 NOSIG
  • 192230Z 36011KT 9999 RA FEW015 BKN040 08/00 Q1021 NOSIG
  • 192200Z 03005KT 9999 SCT045 09/M01 Q1020 NOSIG

TAF TAF LQBK
Valid from the 20 at 00:00 until the 21 at 00:00 UTC


192300Z 2000/2024 01006KT 9999 FEW020 SCT040 TX11/2013Z TN03/2006Z
PROB40
TEMPO 2000/2016 31010KT
PROB30
TEMPO 2000/2005 RA



MET'MAP, your aeronautical weather chart ! - Copyright ORBIFLY December 2007 - Disclaimer

ORBIFLY MET'MAP TEAM :

Programming & Development : Alexandra Zaïnal
Concept & original design : Baudouin d'Aumeries
Assistance for programming : Marc-Olivier Méhu
Technical & hardware support : Manuel Goepfert

Contact : metmap@orbifly.com




SOURCES & CREDITS :

   NOAA